Time;durP1;ratioP1;P1;durP2;ratioP2;P2;SDS_P1;SDS_P2;PMS_P1;PMS_P2;Temp;Humidity;BMP_temperature;BMP_pressure;BME280_temperature;BME280_humidity;BME280_pressure;Samples;Min_cycle;Max_cycle;Signal;HPM_P1;HPM_P2
2023/11/18 00:04:54;;;;;;;13.27;12.07;;;5.80;99.90;;;6.34;100.00;98758.84;10195671;28;20618;-66
2023/11/18 00:09:59;;;;;;;13.00;11.90;;;5.80;99.90;;;6.31;100.00;98772.16;10123650;28;20238;-66
2023/11/18 00:15:04;;;;;;;12.73;11.53;;;5.80;99.90;;;6.37;100.00;98763.31;10119993;28;20230;-66
2023/11/18 00:20:11;;;;;;;12.53;11.43;;;5.80;99.90;;;6.38;100.00;98763.47;10114912;28;20238;-65
2023/11/18 00:25:16;;;;;;;12.57;11.40;;;5.80;99.90;;;6.36;100.00;98766.63;10121213;28;20956;-67
2023/11/18 00:30:20;;;;;;;12.50;11.50;;;5.80;99.90;;;6.32;100.00;98766.34;10117727;28;20512;-66
2023/11/18 00:35:23;;;;;;;12.90;11.70;;;5.80;99.90;;;6.30;100.00;98769.50;10127570;28;20257;-67
2023/11/18 00:40:29;;;;;;;13.53;12.23;;;5.80;99.90;;;6.30;100.00;98770.41;10189029;28;20527;-67
2023/11/18 00:45:33;;;;;;;13.23;11.90;;;5.80;99.90;;;6.35;100.00;98767.34;10115483;28;20238;-66
2023/11/18 00:50:36;;;;;;;13.63;12.33;;;5.80;99.90;;;6.30;100.00;98772.94;10187078;28;20234;-66
2023/11/18 00:55:41;;;;;;;13.03;11.87;;;5.80;99.90;;;6.37;100.00;98778.56;10119548;28;20238;-65
2023/11/18 01:00:44;;;;;;;13.87;12.67;;;5.80;99.90;;;6.29;100.00;98767.72;10186040;28;20250;-65
2023/11/18 01:05:47;;;;;;;13.60;12.33;;;5.80;99.90;;;6.29;100.00;98771.13;10118131;28;20230;-66
2023/11/18 01:10:52;;;;;;;12.27;11.27;;;5.80;99.90;;;6.29;100.00;98768.59;10119202;28;20227;-66
2023/11/18 01:15:55;;;;;;;13.30;12.20;;;5.80;99.90;;;6.32;100.00;98779.06;10117806;28;20222;-66
2023/11/18 01:20:58;;;;;;;13.40;12.23;;;5.80;99.90;;;6.32;100.00;98778.13;10108117;28;20244;-67
2023/11/18 01:26:04;;;;;;;13.40;12.20;;;5.80;99.90;;;6.31;100.00;98779.78;10121513;28;20733;-66
2023/11/18 01:31:09;;;;;;;14.40;13.13;;;5.80;99.90;;;6.35;100.00;98783.47;10244257;28;20226;-66
2023/11/18 01:36:12;;;;;;;14.10;12.70;;;5.80;99.90;;;6.31;100.00;98789.94;10122010;28;20232;-66
2023/11/18 01:41:19;;;;;;;14.83;13.27;;;5.80;99.90;;;6.29;100.00;98796.53;10189383;28;20706;-66
2023/11/18 01:46:23;;;;;;;15.07;13.67;;;5.70;99.90;;;6.29;100.00;98799.06;10186199;28;20246;-66
2023/11/18 01:51:26;;;;;;;14.17;12.77;;;5.70;99.90;;;6.30;100.00;98802.50;10124006;28;20235;-66
2023/11/18 01:56:32;;;;;;;15.17;13.83;;;5.70;99.90;;;6.22;100.00;98804.38;10127058;28;20230;-68
2023/11/18 02:01:36;;;;;;;14.80;13.33;;;5.70;99.90;;;6.15;100.00;98796.94;10119341;28;20242;-66
2023/11/18 02:06:39;;;;;;;15.07;13.67;;;5.60;99.90;;;6.19;100.00;98799.00;10120460;28;20730;-64
2023/11/18 02:11:54;;;;;;;14.67;13.27;;;5.70;99.90;;;6.18;100.00;98787.09;10129316;28;20715;-67
2023/11/18 02:17:01;;;;;;;14.60;13.20;;;5.60;99.90;;;6.15;100.00;98801.13;10122999;28;20231;-67
2023/11/18 02:22:07;;;;;;;14.30;13.00;;;5.60;99.90;;;6.16;100.00;98802.94;10122019;28;20242;-66
2023/11/18 02:27:13;;;;;;;14.83;13.47;;;5.70;99.90;;;6.12;100.00;98801.75;10116609;28;20234;-66
2023/11/18 02:32:23;;;;;;;15.47;13.93;;;5.60;99.90;;;6.17;100.00;98799.63;10118148;28;20239;-66
2023/11/18 02:37:27;;;;;;;15.70;14.23;;;5.70;99.90;;;6.18;100.00;98797.25;10126729;28;20223;-66
2023/11/18 02:42:33;;;;;;;15.50;14.10;;;5.70;99.90;;;6.17;100.00;98792.91;10121846;28;20253;-65
2023/11/18 02:47:36;;;;;;;15.00;13.60;;;5.70;99.90;;;6.19;100.00;98804.09;10181645;28;20261;-66
2023/11/18 02:52:39;;;;;;;15.40;13.97;;;5.70;99.90;;;6.16;100.00;98808.00;10204597;28;20309;-66
2023/11/18 02:57:44;;;;;;;14.70;13.17;;;5.60;99.90;;;6.14;100.00;98805.31;10178674;28;20243;-66
2023/11/18 03:02:48;;;;;;;15.93;14.37;;;5.60;99.90;;;6.13;100.00;98801.00;10198108;28;20227;-66
2023/11/18 03:07:53;;;;;;;14.80;13.47;;;5.60;99.90;;;6.13;100.00;98803.56;10195086;28;20234;-66
2023/11/18 03:12:58;;;;;;;15.27;13.67;;;5.60;99.90;;;6.05;100.00;98796.91;10150151;28;20804;-66
2023/11/18 03:18:01;;;;;;;14.03;12.67;;;5.50;99.90;;;6.00;100.00;98795.59;10221325;28;20249;-66
2023/11/18 03:23:07;;;;;;;13.73;12.43;;;5.50;99.90;;;5.97;100.00;98795.31;10103919;28;20245;-66
2023/11/18 03:28:12;;;;;;;15.30;13.77;;;5.40;99.90;;;5.93;100.00;98791.63;10122983;28;20721;-67
2023/11/18 03:33:15;;;;;;;15.50;13.67;;;5.40;99.90;;;5.94;100.00;98795.03;10118716;28;20613;-66
2023/11/18 03:38:18;;;;;;;14.80;13.40;;;5.40;99.90;;;5.90;100.00;98787.88;10187570;28;20228;-67
2023/11/18 03:43:22;;;;;;;15.53;14.03;;;5.40;99.90;;;5.87;100.00;98794.44;10194408;28;20234;-66
2023/11/18 03:48:26;;;;;;;18.27;16.33;;;5.40;99.90;;;5.88;100.00;98797.88;10198345;28;20234;-66
2023/11/18 03:53:29;;;;;;;16.00;14.37;;;5.40;99.90;;;5.89;100.00;98807.25;10192044;28;20245;-66
2023/11/18 03:58:34;;;;;;;17.23;15.47;;;5.40;99.90;;;5.89;100.00;98812.34;10194157;28;20234;-66
2023/11/18 04:03:37;;;;;;;16.60;15.00;;;5.40;99.90;;;5.86;100.00;98812.06;10194701;28;20238;-67
2023/11/18 04:08:44;;;;;;;15.90;14.30;;;5.30;99.90;;;5.86;100.00;98807.88;10121823;28;20226;-67
2023/11/18 04:13:48;;;;;;;13.73;12.43;;;5.30;99.90;;;5.84;100.00;98799.25;10191198;28;20238;-67
2023/11/18 04:18:51;;;;;;;14.73;13.23;;;5.30;99.90;;;5.69;100.00;98808.00;10200759;28;20230;-66
2023/11/18 04:23:54;;;;;;;15.07;13.47;;;5.10;99.90;;;5.71;100.00;98805.59;10212703;28;20231;-67
2023/11/18 04:28:59;;;;;;;15.80;13.40;;;5.20;99.90;;;5.75;100.00;98813.66;10198652;28;20253;-66
2023/11/18 04:34:04;;;;;;;14.40;12.37;;;5.20;99.90;;;5.78;100.00;98803.78;10136975;28;20254;-67
2023/11/18 04:39:07;;;;;;;14.47;13.03;;;5.20;99.90;;;5.80;100.00;98807.31;10207376;28;20292;-65
2023/11/18 04:44:12;;;;;;;14.23;12.93;;;5.20;99.90;;;5.84;100.00;98805.97;10185005;28;20232;-67
2023/11/18 04:49:16;;;;;;;13.07;11.70;;;5.30;99.90;;;5.78;100.00;98796.16;10195315;28;20234;-66
2023/11/18 04:54:20;;;;;;;13.00;11.80;;;5.20;99.90;;;5.80;100.00;98803.91;10182741;28;20753;-65
2023/11/18 04:59:24;;;;;;;11.83;10.70;;;5.20;99.90;;;5.79;100.00;98804.66;10192495;28;20710;-66
2023/11/18 05:04:27;;;;;;;12.20;11.10;;;5.30;99.90;;;5.81;100.00;98804.06;10118732;28;21058;-67
2023/11/18 05:09:32;;;;;;;13.37;12.07;;;5.30;99.90;;;5.81;100.00;98801.53;10120938;28;20242;-66
2023/11/18 05:14:37;;;;;;;13.27;12.07;;;5.30;99.90;;;5.88;100.00;98803.84;10119565;28;20934;-67
2023/11/18 05:19:41;;;;;;;14.10;12.63;;;5.30;99.90;;;5.91;100.00;98802.34;10118646;28;20321;-67
2023/11/18 05:24:45;;;;;;;14.23;12.83;;;5.40;99.90;;;5.81;100.00;98801.53;10117308;28;20226;-67
2023/11/18 05:29:54;;;;;;;13.80;12.50;;;5.20;99.90;;;5.83;100.00;98811.78;10119462;28;20250;-66
2023/11/18 05:34:58;;;;;;;14.33;12.93;;;5.30;99.90;;;5.82;100.00;98813.44;10102687;28;20231;-66
2023/11/18 05:40:06;;;;;;;14.07;12.67;;;5.30;99.90;;;5.78;100.00;98813.91;10108721;28;20599;-67
2023/11/18 05:45:17;;;;;;;14.37;12.97;;;5.20;99.90;;;5.76;100.00;98807.81;10116224;28;20277;-67
2023/11/18 05:50:21;;;;;;;14.47;12.97;;;5.20;99.90;;;5.65;100.00;98806.81;10118671;28;20238;-67
2023/11/18 05:55:24;;;;;;;14.57;13.07;;;5.10;99.90;;;5.63;100.00;98807.44;10107059;28;20744;-67
2023/11/18 06:00:30;;;;;;;14.13;12.73;;;5.10;99.90;;;5.66;100.00;98797.56;10113055;28;20760;-67
2023/11/18 06:05:43;;;;;;;13.47;12.07;;;5.10;99.90;;;5.68;100.00;98790.13;10112843;28;20235;-67
2023/11/18 06:10:46;;;;;;;16.30;14.70;;;5.10;99.90;;;5.64;100.00;98788.94;10117700;28;20238;-67
2023/11/18 06:15:51;;;;;;;22.03;18.63;;;5.20;99.90;;;5.68;100.00;98779.97;10117901;28;20354;-66
2023/11/18 06:20:54;;;;;;;35.17;26.43;;;5.10;99.90;;;5.60;100.00;98786.88;10132484;28;20802;-66
2023/11/18 06:26:00;;;;;;;23.73;20.77;;;5.00;99.90;;;5.52;100.00;98792.88;10119465;28;20237;-66
2023/11/18 06:31:08;;;;;;;18.70;16.47;;;5.00;99.90;;;5.58;100.00;98784.22;10117712;28;20231;-66
2023/11/18 06:36:18;;;;;;;16.67;15.03;;;5.00;99.90;;;5.42;100.00;98797.13;10185028;28;20319;-66
2023/11/18 06:41:25;;;;;;;17.20;15.50;;;4.90;99.90;;;5.49;100.00;98803.63;10167293;28;20254;-66
2023/11/18 06:46:33;;;;;;;16.93;15.10;;;5.00;99.90;;;5.56;100.00;98815.25;10134455;28;20234;-66
2023/11/18 06:51:37;;;;;;;15.20;13.60;;;5.10;99.90;;;5.44;100.00;98792.19;10164601;28;21074;-65
2023/11/18 06:56:43;;;;;;;17.50;13.30;;;5.00;99.90;;;5.38;100.00;98814.47;10131945;28;20281;-66
2023/11/18 07:01:48;;;;;;;14.17;12.67;;;4.90;99.90;;;5.46;100.00;98817.69;10116143;28;20689;-67
2023/11/18 07:06:52;;;;;;;15.43;13.80;;;4.90;99.90;;;5.51;100.00;98812.28;10200163;28;20305;-66
2023/11/18 07:11:56;;;;;;;15.23;13.63;;;5.00;99.90;;;5.70;100.00;98809.78;10194985;28;20235;-67
2023/11/18 07:17:00;;;;;;;15.43;13.93;;;5.10;99.90;;;5.92;100.00;98816.78;10123473;28;20238;-67
2023/11/18 07:22:06;;;;;;;16.10;14.43;;;5.20;99.90;;;5.89;100.00;98814.88;10120741;28;20240;-67
2023/11/18 07:27:11;;;;;;;13.53;12.13;;;5.20;99.90;;;6.09;100.00;98816.69;10129659;28;20329;-66
2023/11/18 07:32:15;;;;;;;14.47;13.07;;;5.40;99.90;;;6.26;100.00;98841.94;10127153;28;21253;-66
2023/11/18 07:37:19;;;;;;;15.33;13.43;;;5.50;99.90;;;6.41;100.00;98836.44;10172350;28;20651;-68
2023/11/18 07:42:22;;;;;;;14.27;12.97;;;5.60;99.90;;;6.41;100.00;98856.75;10153085;28;20286;-67
2023/11/18 07:47:27;;;;;;;13.17;11.87;;;5.60;99.90;;;6.40;100.00;98837.22;10125371;28;20233;-67
2023/11/18 07:52:31;;;;;;;13.00;11.80;;;5.60;99.90;;;6.35;100.00;98831.72;10159899;28;20227;-67
2023/11/18 07:57:36;;;;;;;12.63;11.50;;;5.60;99.90;;;6.55;100.00;98810.63;10227854;28;20224;-68
2023/11/18 08:02:40;;;;;;;14.37;13.17;;;5.80;99.90;;;6.77;100.00;98810.84;10140174;28;20241;-65
2023/11/18 08:07:44;;;;;;;14.80;13.50;;;6.10;99.90;;;7.04;100.00;98804.75;10125387;28;20313;-67
2023/11/18 08:12:48;;;;;;;12.50;11.37;;;6.40;99.90;;;7.35;100.00;98820.06;10192578;28;20875;-67
2023/11/18 08:17:53;;;;;;;12.70;11.57;;;6.70;99.90;;;7.25;100.00;98826.03;10120762;28;20226;-67
2023/11/18 08:22:56;;;;;;;13.30;12.10;;;6.60;99.90;;;7.38;100.00;98822.84;10242377;28;20258;-67
2023/11/18 08:28:00;;;;;;;10.33;9.43;;;6.60;99.90;;;7.17;100.00;98830.44;10160033;28;20262;-68
2023/11/18 08:33:08;;;;;;;11.43;10.43;;;6.50;99.90;;;7.29;100.00;98824.63;10116428;28;20234;-66
2023/11/18 08:38:12;;;;;;;11.80;10.77;;;6.60;99.90;;;7.41;100.00;98834.19;10124636;28;20246;-65
2023/11/18 08:43:16;;;;;;;11.83;10.80;;;6.70;99.90;;;7.39;100.00;98835.72;10124119;28;20230;-67
2023/11/18 08:48:22;;;;;;;11.37;10.03;;;6.60;99.90;;;7.55;100.00;98822.63;10125733;28;20328;-66
2023/11/18 08:53:26;;;;;;;10.57;9.67;;;6.70;99.90;;;7.56;100.00;98824.44;10126967;28;20308;-66
2023/11/18 08:58:33;;;;;;;9.23;8.43;;;6.70;99.90;;;7.45;100.00;98823.50;10098390;28;20238;-67
2023/11/18 09:03:42;;;;;;;8.30;7.60;;;6.70;99.90;;;7.57;100.00;98821.09;10123665;28;20230;-69
2023/11/18 09:08:52;;;;;;;7.77;7.17;;;6.80;99.90;;;7.61;100.00;98814.63;10105107;28;20237;-67
2023/11/18 09:14:00;;;;;;;8.67;7.80;;;6.80;99.90;;;7.48;100.00;98802.53;10114021;28;20234;-67
2023/11/18 09:19:06;;;;;;;8.00;7.40;;;6.80;99.90;;;7.55;100.00;98815.00;10150557;28;20322;-67
2023/11/18 09:24:12;;;;;;;8.13;7.53;;;6.90;99.90;;;7.62;100.00;98821.50;10147934;28;20351;-67
2023/11/18 09:29:17;;;;;;;8.73;7.90;;;6.90;99.90;;;7.73;100.00;98819.88;10103975;28;20718;-67
2023/11/18 09:34:27;;;;;;;8.20;7.50;;;7.10;99.90;;;7.86;100.00;98810.81;10117747;28;20230;-67
2023/11/18 09:39:37;;;;;;;8.13;7.47;;;7.20;99.90;;;7.92;100.00;98820.59;10120761;28;21163;-68
2023/11/18 09:44:41;;;;;;;9.13;8.40;;;7.30;99.90;;;7.97;100.00;98811.69;10113310;28;20233;-68
2023/11/18 09:49:49;;;;;;;8.00;7.28;;;7.50;99.90;;;8.19;100.00;98816.03;10119040;28;20317;-67
2023/11/18 09:55:04;;;;;;;8.90;8.20;;;7.60;99.90;;;8.31;100.00;98817.00;10117939;28;20661;-68
2023/11/18 10:00:19;;;;;;;7.47;6.93;;;7.60;99.90;;;8.22;100.00;98801.00;10116499;28;20227;-66
2023/11/18 10:05:26;;;;;;;8.18;7.47;;;7.70;99.90;;;8.50;100.00;98812.69;10169653;28;20227;-65
2023/11/18 10:10:36;;;;;;;7.07;6.47;;;7.90;99.90;;;8.52;100.00;98803.47;10137466;28;20230;-67
2023/11/18 10:15:40;;;;;;;7.65;6.95;;;8.00;99.90;;;8.77;100.00;98805.44;10172148;28;20774;-65
2023/11/18 10:20:51;;;;;;;7.30;6.75;;;8.20;99.90;;;8.85;100.00;98791.66;10133963;28;20234;-67
2023/11/18 10:25:57;;;;;;;6.22;5.78;;;8.30;99.90;;;9.03;100.00;98798.16;10186867;28;20298;-65
2023/11/18 10:31:04;;;;;;;6.72;6.20;;;8.40;99.90;;;9.07;100.00;98780.56;10124229;28;20234;-66
2023/11/18 10:36:22;;;;;;;6.15;5.75;;;8.40;99.90;;;9.06;100.00;98789.88;10201104;28;20238;-69
2023/11/18 10:41:25;;;;;;;4.22;3.92;;;8.50;99.90;;;9.18;100.00;98784.84;10127589;28;20876;-66
2023/11/18 10:46:29;;;;;;;4.60;4.07;;;8.50;99.90;;;9.21;100.00;98774.84;10125924;28;20239;-67
2023/11/18 10:51:35;;;;;;;4.25;3.95;;;8.50;99.90;;;9.17;94.41;98775.41;10127408;28;20238;-66
2023/11/18 10:56:38;;;;;;;4.25;3.88;;;8.50;99.90;;;9.24;97.95;98770.00;10122686;28;20624;-67
2023/11/18 11:01:43;;;;;;;3.75;3.45;;;8.60;99.90;;;9.40;100.00;98761.88;10184083;28;20258;-67
2023/11/18 11:06:53;;;;;;;3.42;3.17;;;8.60;99.90;;;9.27;96.24;98757.50;10132176;28;20300;-67
2023/11/18 11:12:03;;;;;;;3.67;3.17;;;8.50;99.90;;;9.24;98.50;98765.81;10191245;28;20298;-67
2023/11/18 11:17:12;;;;;;;3.50;3.20;;;8.50;99.90;;;9.15;94.19;98759.09;10116562;28;20230;-67
2023/11/18 11:22:24;;;;;;;2.90;2.70;;;8.50;99.90;;;9.14;95.56;98768.41;10191717;28;20318;-67
2023/11/18 11:27:42;;;;;;;4.55;2.50;;;8.40;99.90;;;9.24;99.11;98764.88;10123089;28;20611;-68
2023/11/18 11:32:52;;;;;;;3.80;3.03;;;8.50;99.90;;;9.24;97.40;98759.78;10124884;28;20234;-66
2023/11/18 11:38:04;;;;;;;2.92;2.72;;;8.50;99.90;;;9.26;98.04;98753.16;10120710;28;20233;-66
2023/11/18 11:43:10;;;;;;;2.58;2.38;;;8.50;99.90;;;9.19;92.29;98740.72;10125554;28;20318;-66
2023/11/18 11:48:15;;;;;;;2.92;2.72;;;8.40;99.90;;;9.21;95.27;98734.97;10152341;28;20326;-67
2023/11/18 11:53:23;;;;;;;3.55;2.97;;;8.60;99.90;;;9.29;94.60;98738.09;10138329;28;20293;-67
2023/11/18 11:58:28;;;;;;;3.00;2.80;;;8.60;99.90;;;9.48;100.00;98728.50;10195433;28;20238;-67
2023/11/18 12:03:36;;;;;;;3.83;3.47;;;8.70;99.90;;;9.45;94.95;98710.41;10128080;28;20234;-67
2023/11/18 12:08:44;;;;;;;3.33;2.83;;;8.70;99.90;;;9.34;89.31;98705.28;10193875;28;20234;-68
2023/11/18 12:14:12;;;;;;;3.22;2.92;;;8.60;99.90;;;9.29;91.22;98692.16;10192288;28;20239;-67
2023/11/18 12:19:36;;;;;;;4.63;2.60;;;8.60;99.90;;;9.37;94.59;98685.09;10128447;28;20227;-68
2023/11/18 12:24:41;;;;;;;3.53;3.00;;;8.70;99.90;;;9.32;87.15;98687.28;10130184;28;20294;-68
2023/11/18 12:29:45;;;;;;;3.60;2.72;;;8.60;99.90;;;9.28;90.73;98664.00;10122069;28;20238;-67
2023/11/18 12:34:53;;;;;;;3.15;2.60;;;8.60;99.90;;;9.41;97.35;98651.38;10145588;28;20235;-67
2023/11/18 12:40:51;;;;;;;3.25;3.05;;;8.60;99.90;;;9.28;88.93;98636.81;10159005;28;20733;-67
2023/11/18 12:46:49;;;;;;;3.38;3.08;;;8.60;99.90;;;9.34;91.30;98619.41;10193880;28;20369;-66
2023/11/18 12:51:55;;;;;;;3.55;3.25;;;8.60;99.90;;;9.58;98.32;98622.00;10181271;28;20321;-67
2023/11/18 12:57:02;;;;;;;3.88;3.58;;;8.80;99.90;;;9.68;92.09;98606.59;10185836;28;20237;-66
2023/11/18 13:02:13;;;;;;;3.88;3.33;;;9.00;99.90;;;9.38;91.10;98611.19;10125342;28;20234;-67
2023/11/18 13:07:17;;;;;;;4.13;3.72;;;8.70;99.90;;;9.32;91.46;98609.88;10127439;28;20251;-67
2023/11/18 13:12:23;;;;;;;5.40;4.97;;;8.60;99.90;;;9.35;92.82;98600.78;10115825;28;20232;-67
2023/11/18 13:17:28;;;;;;;3.58;3.28;;;8.60;99.90;;;9.24;90.65;98589.81;10189058;28;20664;-67
2023/11/18 13:22:32;;;;;;;3.78;3.10;;;8.50;99.90;;;9.25;91.94;98608.53;10184961;28;20265;-67
2023/11/18 13:27:48;;;;;;;3.53;3.22;;;8.60;99.90;;;9.25;93.94;98603.44;10126456;28;20257;-67
2023/11/18 13:32:52;;;;;;;3.80;3.13;;;8.50;99.90;;;9.15;91.84;98589.09;10118707;28;20226;-67
2023/11/18 13:37:57;;;;;;;3.85;3.55;;;8.40;99.90;;;9.11;94.28;98586.22;10120502;28;20345;-67
2023/11/18 13:43:05;;;;;;;4.47;4.05;;;8.40;99.90;;;9.06;95.45;98585.88;10183326;28;20226;-67
2023/11/18 13:48:09;;;;;;;4.70;4.10;;;8.40;99.90;;;9.03;96.74;98566.13;10126542;28;20229;-68
2023/11/18 13:53:15;;;;;;;5.60;4.65;;;8.40;99.90;;;9.02;98.64;98555.84;10120005;28;20262;-67
2023/11/18 13:58:19;;;;;;;6.00;4.85;;;8.30;99.90;;;8.97;99.28;98550.38;10118320;28;20293;-66
2023/11/18 14:03:24;;;;;;;4.68;4.28;;;8.30;99.90;;;9.00;100.00;98531.88;10119627;28;20328;-66
2023/11/18 14:08:28;;;;;;;4.38;4.05;;;8.30;99.90;;;8.98;100.00;98541.94;10126735;28;20301;-67
2023/11/18 14:13:31;;;;;;;4.60;4.20;;;8.30;99.90;;;8.95;100.00;98531.53;10127963;28;20238;-66
2023/11/18 14:18:37;;;;;;;4.18;3.80;;;8.30;99.90;;;9.05;100.00;98539.88;10116019;28;20233;-67
2023/11/18 14:23:40;;;;;;;3.50;3.10;;;8.30;99.90;;;8.89;98.84;98531.06;10130292;28;20321;-68
2023/11/18 14:28:43;;;;;;;3.63;3.10;;;8.20;99.90;;;8.97;100.00;98535.09;10190420;28;20423;-66
2023/11/18 14:33:48;;;;;;;3.65;3.40;;;8.20;99.90;;;8.79;98.54;98538.81;10125321;28;21052;-66
2023/11/18 14:38:51;;;;;;;3.85;3.55;;;8.10;99.90;;;8.70;99.57;98525.38;10116114;28;20257;-67
2023/11/18 14:43:54;;;;;;;3.83;3.63;;;8.00;99.90;;;8.75;100.00;98524.06;10119425;28;20722;-67
2023/11/18 14:48:59;;;;;;;5.32;4.82;;;8.00;99.90;;;8.90;100.00;98516.66;10126430;28;20707;-67
2023/11/18 14:54:02;;;;;;;7.18;6.50;;;8.10;99.90;;;9.06;100.00;98503.41;10119173;28;20233;-66
2023/11/18 14:59:07;;;;;;;5.78;5.20;;;8.30;99.90;;;8.61;97.89;98510.28;10115882;28;20227;-66
2023/11/18 15:04:12;;;;;;;31.30;16.48;;;8.00;99.90;;;8.75;100.00;98498.56;10112705;28;20333;-66
2023/11/18 15:09:15;;;;;;;5.40;4.90;;;8.00;99.90;;;8.48;97.22;98508.50;10108679;28;20320;-67
2023/11/18 15:14:18;;;;;;;4.95;4.45;;;7.80;99.90;;;8.61;100.00;98506.84;10117734;28;20234;-66
2023/11/18 15:19:23;;;;;;;4.90;4.45;;;7.90;99.90;;;8.74;99.01;98491.72;10114654;28;20611;-66
2023/11/18 15:24:26;;;;;;;4.65;4.25;;;8.10;99.90;;;8.67;97.72;98487.84;10113264;28;20230;-67
2023/11/18 15:29:37;;;;;;;4.20;3.80;;;8.00;99.90;;;8.44;98.63;98482.66;10102256;28;20233;-67
2023/11/18 15:34:42;;;;;;;4.40;4.00;;;7.80;99.90;;;8.58;96.19;98464.19;10185109;28;20235;-67
2023/11/18 15:39:45;;;;;;;5.23;4.73;;;8.00;99.90;;;8.54;96.59;98445.25;10116319;28;20597;-67
2023/11/18 15:44:48;;;;;;;5.63;4.47;;;7.90;99.90;;;8.53;95.73;98443.50;10117541;28;20733;-67
2023/11/18 15:49:53;;;;;;;4.72;4.00;;;7.90;99.90;;;8.57;95.93;98449.69;10117149;28;20234;-67
2023/11/18 15:54:56;;;;;;;5.10;4.55;;;7.90;99.90;;;8.46;96.90;98469.25;10121988;28;20234;-67
2023/11/18 15:59:59;;;;;;;5.30;4.80;;;7.80;99.90;;;8.29;94.22;98477.25;10114966;28;20225;-66
2023/11/18 16:05:05;;;;;;;3.97;3.67;;;7.70;99.90;;;8.27;95.05;98488.97;10100790;28;20218;-66
2023/11/18 16:10:09;;;;;;;7.07;6.45;;;7.60;99.90;;;8.13;97.98;98488.84;10117668;28;20710;-67
2023/11/18 16:15:13;;;;;;;6.53;5.25;;;7.50;99.90;;;8.20;100.00;98489.31;10110183;28;20235;-66
2023/11/18 16:20:20;;;;;;;4.80;4.40;;;7.50;99.90;;;8.17;100.00;98481.44;10187121;28;20235;-66
2023/11/18 16:25:27;;;;;;;4.80;4.30;;;7.50;99.90;;;8.25;100.00;98465.97;10120536;28;20218;-66
2023/11/18 16:30:32;;;;;;;5.30;4.80;;;7.50;99.90;;;8.11;99.17;98462.38;10122861;28;20238;-66
2023/11/18 16:35:37;;;;;;;12.05;8.95;;;7.50;99.90;;;8.09;100.00;98455.38;10141772;28;20235;-66
2023/11/18 16:40:40;;;;;;;9.95;7.28;;;7.40;99.90;;;8.14;100.00;98446.44;10133767;28;20235;-67
2023/11/18 16:45:43;;;;;;;16.98;14.13;;;7.40;99.90;;;8.09;100.00;98442.66;10196098;28;20234;-67
2023/11/18 16:50:48;;;;;;;8.60;7.13;;;7.40;99.90;;;8.09;100.00;98435.00;10115091;28;20233;-65
2023/11/18 16:55:51;;;;;;;7.80;6.95;;;7.40;99.90;;;7.97;100.00;98412.06;10117118;28;20234;-66
2023/11/18 17:00:54;;;;;;;6.95;6.43;;;7.30;99.90;;;7.79;100.00;98415.75;10111520;28;20788;-67
2023/11/18 17:05:59;;;;;;;6.18;5.25;;;7.20;99.90;;;7.65;100.00;98407.94;10124530;28;20717;-66
2023/11/18 17:11:04;;;;;;;6.72;6.22;;;7.00;99.90;;;7.73;100.00;98389.84;10116847;28;20338;-67
2023/11/18 17:16:08;;;;;;;6.53;5.93;;;7.20;99.90;;;7.55;100.00;98366.41;10120775;28;20230;-66
2023/11/18 17:21:13;;;;;;;6.50;5.87;;;6.90;99.90;;;7.70;100.00;98357.44;10116655;28;20556;-66
2023/11/18 17:26:16;;;;;;;9.10;6.33;;;7.00;99.90;;;7.62;100.00;98366.13;10116356;28;20229;-67
2023/11/18 17:31:19;;;;;;;6.80;6.10;;;7.00;99.90;;;7.65;100.00;98364.69;10114146;28;20227;-66
2023/11/18 17:36:25;;;;;;;6.60;5.90;;;7.00;99.90;;;7.67;100.00;98364.84;10115025;28;20512;-66
2023/11/18 17:41:28;;;;;;;5.07;4.67;;;7.00;99.90;;;7.78;100.00;98373.25;10109792;28;20268;-67
2023/11/18 17:46:31;;;;;;;4.60;4.20;;;7.10;99.90;;;7.83;100.00;98351.59;10110528;28;20284;-68
2023/11/18 17:51:37;;;;;;;4.70;4.30;;;7.20;99.90;;;7.94;100.00;98326.97;10118161;28;20265;-67
2023/11/18 17:56:40;;;;;;;4.80;4.40;;;7.20;99.90;;;8.01;100.00;98325.00;10113066;28;20614;-67
2023/11/18 18:01:43;;;;;;;4.07;3.77;;;7.30;99.90;;;7.83;100.00;98303.25;10116745;28;20238;-67
2023/11/18 18:06:48;;;;;;;5.87;5.37;;;7.20;99.90;;;7.94;100.00;98299.84;10111914;28;20231;-66
2023/11/18 18:11:51;;;;;;;8.25;6.13;;;7.30;99.90;;;8.09;96.56;98280.59;10178081;28;20715;-65
2023/11/18 18:16:55;;;;;;;8.90;6.60;;;7.40;99.90;;;7.92;95.79;98270.84;10122638;28;20226;-66
2023/11/18 18:22:00;;;;;;;5.20;4.60;;;7.30;99.90;;;7.75;92.34;98278.88;10114365;28;20238;-65
2023/11/18 18:27:04;;;;;;;4.30;3.90;;;7.20;99.90;;;7.74;92.63;98315.28;10107810;28;20231;-65
2023/11/18 18:32:10;;;;;;;10.00;9.10;;;7.20;99.90;;;7.74;98.13;98315.28;10106483;28;20235;-66
2023/11/18 18:37:14;;;;;;;7.70;7.00;;;7.20;99.90;;;7.74;100.00;98311.09;10109759;28;20246;-64
2023/11/18 18:42:18;;;;;;;7.23;6.50;;;7.30;99.90;;;7.57;100.00;98303.84;10112787;28;20631;-65
2023/11/18 18:47:22;;;;;;;7.43;6.83;;;7.10;99.90;;;7.38;100.00;98299.00;10120701;28;20707;-65
2023/11/18 18:52:30;;;;;;;7.77;7.17;;;6.90;99.90;;;7.27;100.00;98287.13;10187994;28;20227;-65
2023/11/18 18:57:34;;;;;;;11.33;10.33;;;6.90;99.90;;;7.35;100.00;98273.34;10128212;28;20240;-66
2023/11/18 19:02:37;;;;;;;15.27;13.87;;;6.90;99.90;;;7.22;100.00;98258.81;10114464;28;20230;-65
2023/11/18 19:07:42;;;;;;;9.63;8.73;;;6.70;99.90;;;7.09;100.00;98241.72;10116277;28;20227;-65
2023/11/18 19:12:45;;;;;;;7.00;6.40;;;6.70;99.90;;;7.04;100.00;98234.53;10115056;28;20293;-65
2023/11/18 19:17:49;;;;;;;6.70;6.20;;;6.60;99.90;;;6.94;100.00;98222.78;10123574;28;20233;-65
2023/11/18 19:22:55;;;;;;;8.47;7.67;;;6.50;99.90;;;6.92;100.00;98191.28;10120210;28;20297;-65
2023/11/18 19:27:58;;;;;;;9.57;8.33;;;6.60;99.90;;;7.00;100.00;98190.22;10123079;28;20235;-63
2023/11/18 19:33:01;;;;;;;8.30;7.60;;;6.60;99.90;;;6.94;100.00;98187.22;10124713;28;20368;-66
2023/11/18 19:38:06;;;;;;;6.70;6.10;;;6.60;99.90;;;6.87;100.00;98160.47;10117604;28;20390;-65
2023/11/18 19:43:10;;;;;;;4.70;4.30;;;6.50;99.90;;;6.89;100.00;98145.31;10154614;28;20226;-65
2023/11/18 19:48:13;;;;;;;4.20;3.50;;;6.50;99.90;;;6.79;100.00;98130.16;10147621;28;20234;-65
2023/11/18 19:53:18;;;;;;;6.20;5.57;;;6.40;99.90;;;6.71;100.00;98099.97;10114418;28;20226;-67
2023/11/18 19:58:22;;;;;;;5.90;5.00;;;6.40;99.90;;;6.74;100.00;98106.94;10115313;28;20345;-65
2023/11/18 20:03:25;;;;;;;4.67;4.27;;;6.50;99.90;;;6.70;100.00;98121.06;10116611;28;20237;-65
2023/11/18 20:08:30;;;;;;;4.67;4.30;;;6.40;99.90;;;6.88;100.00;98107.97;10114039;28;20317;-65
2023/11/18 20:13:33;;;;;;;7.20;6.07;;;6.50;99.90;;;6.91;100.00;98093.84;10115573;28;20336;-65
2023/11/18 20:18:37;;;;;;;9.83;7.53;;;6.60;99.90;;;7.04;100.00;98062.63;10104130;28;20230;-65
2023/11/18 20:23:42;;;;;;;6.70;6.13;;;6.60;99.90;;;6.82;100.00;98069.41;10170324;28;20230;-65
2023/11/18 20:28:45;;;;;;;8.23;7.43;;;6.50;99.90;;;6.73;100.00;98069.63;10127778;28;20223;-64
2023/11/18 20:33:49;;;;;;;7.23;6.53;;;6.40;99.90;;;6.78;100.00;98045.41;10117974;28;20616;-65
2023/11/18 20:38:53;;;;;;;7.43;6.77;;;6.40;99.90;;;6.85;100.00;98079.81;10119826;28;20729;-66
2023/11/18 20:43:56;;;;;;;10.17;9.13;;;6.50;99.90;;;6.83;100.00;98127.94;10113985;28;20677;-65
2023/11/18 20:49:00;;;;;;;9.17;8.37;;;6.50;99.90;;;6.98;100.00;98102.81;10120669;28;20245;-66
2023/11/18 20:54:06;;;;;;;8.43;7.63;;;6.60;99.90;;;7.08;100.00;98084.06;10112409;28;20227;-67
2023/11/18 20:59:09;;;;;;;11.13;9.03;;;6.70;99.90;;;7.09;100.00;98065.50;10151696;28;20381;-66
2023/11/18 21:04:13;;;;;;;10.30;8.77;;;6.70;99.90;;;7.07;100.00;98065.38;10210275;28;20227;-66
2023/11/18 21:09:19;;;;;;;9.00;7.60;;;6.60;99.90;;;6.97;100.00;98061.25;10115614;28;20245;-65
2023/11/18 21:14:22;;;;;;;9.40;8.60;;;6.60;99.90;;;7.02;100.00;98074.31;10118391;28;20272;-64
2023/11/18 21:19:26;;;;;;;10.10;9.30;;;6.70;99.90;;;6.98;100.00;98054.53;10116159;28;20241;-68